Alexis, Illinois
Current Conditions -  °F | °C
As of 12:55 PM on Thursday 30 Oct 2014 (Local Time) from KGBG Reporting Station
Overcast Overcast  
Wind Chill: 41°   Ceiling: 6000
Heat Index: 44°   Visibility: 10mi
Dew Point: 39°   Wind: 5mph
Humidity: 83%   Direction: 80°E
Pressure: 30.08"   Gusts: NA
Location:  41.06°N, 90.56°W
Report Text: KGBG 301755Z AUTO 08004KT 10SM OVC060 07/04 A3008 RMK AO2 T00650038 10065 20009
Loading
Personal Weather Stations






























Interactive Weather Map
Tropical Storm Tracking
New forecast layout! Learn more

10-Day Weather Forecast

Advertisements
Track Severe Weather on mobile